WEATHER DATA

YESTERDAY
Time Temp. Dewp. Hum. Wind dir Wind speed Wind gust Bar. 1h Prec. 24h Prec.
00:05 -6.4 -6.4 100 240 1.1 1.9 1006.6 0.0000 0.0000
00:15 -6.3 -6.3 100 239 0.8 1.9 1006.5 0.0000 0.0000
00:25 -5.8 -5.8 100 245 0.8 1.4 1006.5 0.0000 0.0000
00:35 -5.3 -5.3 100 270 0.8 1.4 1006.5 0.0000 0.0000
00:46 -4.9 -4.9 100 253 0.8 1.4 1006.5 0.0000 0.0000
00:55 -4.7 -4.7 100 245 0.8 1.4 1006.4 0.0000 0.0000
01:05 -4.5 -4.5 100 256 0.8 1.9 1006.4 0.0000 0.0000
01:16 -4.1 -4.1 100 247 0.8 1.1 1006.4 0.0000 0.0000
01:26 -3.8 -3.8 100 251 0.8 1.4 1006.5 0.0000 0.0000
01:36 -3.6 -3.6 100 248 0.8 1.1 1006.4 0.0000 0.0000
01:46 -3.5 -3.5 100 246 0.8 1.4 1006.3 0.0000 0.0000
01:56 -3.4 -3.4 100 255 0.8 1.1 1006.2 0.0000 0.0000
02:06 -3.2 -3.2 100 227 0.8 1.4 1006.2 0.0000 0.0000
02:16 -3.1 -3.1 100 270 0.8 1.1 1006.1 0.0000 0.0000
02:27 -3 -3 100 236 0.8 1.4 1005.9 0.0000 0.0000
02:37 -2.8 -2.8 100 237 0.8 1.9 1005.9 0.0000 0.0000
02:46 -2.7 -2.7 100 233 0.8 1.4 1005.8 0.0000 0.0000
02:56 -2.8 -2.8 100 232 1.4 2.2 1005.7 0.0000 0.0000
03:07 -3 -3 100 226 1.1 2.2 1005.6 0.0000 0.0000
03:17 -3.1 -3.1 100 240 0.8 1.4 1005.6 0.0000 0.0000
03:27 -3.2 -3.2 100 234 1.4 2.2 1005.5 0.0000 0.0000
03:37 -2.9 -2.9 100 242 0.8 1.9 1005.4 0.0000 0.0000
03:47 -3 -3 100 233 0.3 1.1 1005.2 0.0000 0.0000
03:57 -3 -3 100 232 0.8 1.4 1005 0.0000 0.0000
04:07 -3 -3 100 225 0.8 1.9 1005 0.0000 0.0000
04:18 -3 -3 100 231 0.8 1.4 1005 0.0000 0.0000
04:27 -2.8 -2.8 100 230 0.8 1.4 1004.9 0.0000 0.0000
04:37 -2.7 -2.7 100 225 0.8 1.9 1004.8 0.0000 0.0000
04:48 -2.7 -2.7 100 225 0.8 1.4 1004.8 0.0000 0.0000
04:58 -2.8 -2.8 100 245 0.8 1.1 1004.7 0.0000 0.0000
05:08 -2.5 -2.5 100 11 0.8 2.5 1004.7 0.0000 0.0000
05:18 -2.4 -2.4 100 241 0.8 2.5 1004.7 0.0000 0.0000
05:28 -2.3 -2.3 100 253 1.4 3.3 1004.5 0.0000 0.0000
05:38 -2.2 -2.2 100 237 1.1 3.1 1004.4 0.0000 0.0000
05:48 -2.3 -2.3 100 231 1.1 2.2 1004.4 0.0000 0.0000
05:58 -2.2 -2.2 100 240 1.1 3.1 1004.3 0.0000 0.0000
06:09 -2.2 -2.2 100 226 1.1 3.6 1004.2 0.0000 0.0000
06:24 -2.2 -2.2 100 228 1.1 5.3 1004 0.0000 0.0000
06:34 -2.2 -2.2 100 260 0.8 1.4 1004.1 0.0000 0.0000
06:45 -2.2 -2.2 100 225 0.8 1.1 1004.1 0.0000 0.0000
06:54 -2.2 -2.2 100 237 1.4 3.3 1004.1 0.0000 0.0000
07:04 -2.2 -2.2 100 295 1.9 4.4 1004.1 0.0000 0.0000
07:15 -2.2 -2.2 100 263 1.9 4.2 1004.1 0.0000 0.0000
07:25 -2.2 -2.2 100 242 1.9 3.6 1004.1 0.0000 0.0000
07:35 -2.2 -2.2 100 225 1.1 3.3 1004.2 0.0000 0.0000
07:44 -2.2 -2.2 100 225 0.8 1.4 1004.2 0.0000 0.0000
07:55 -2.2 -2.2 100 259 0.8 2.2 1004.3 0.0000 0.0000
08:05 -2.1 -2.1 100 248 1.1 3.3 1004.2 0.0000 0.0000
08:15 -2 -2 100 270 1.9 3.6 1004.2 0.0000 0.0000
08:25 -2.1 -2.1 100 270 2.2 5.6 1004.2 0.0000 0.0000
08:36 -2.2 -2.2 100 254 1.4 5.0 1004.1 0.0000 0.0000
08:45 -2.2 -2.2 100 280 1.9 5.3 1004.1 0.0000 0.0000
08:55 -2.2 -2.2 100 270 1.4 4.4 1004.1 0.0000 0.0000
09:06 -2.3 -2.3 100 257 2.5 5.3 1004.1 0.0000 0.0000
09:16 -2.3 -2.3 100 281 1.4 3.1 1004.1 0.0000 0.0000
09:26 -2.3 -2.3 100 270 0.8 3.6 1004.1 0.0000 0.0000
09:36 -2.2 -2.2 100 254 1.4 3.6 1004 0.0000 0.0000
09:46 -2.1 -2.1 100 229 0.8 1.4 1004 0.0000 0.0000
09:56 -2.1 -2.1 100 235 0.8 2.5 1004 0.0000 0.0000
10:06 -2 -2 100 243 0.8 1.1 1004 0.0000 0.0000
10:17 -1.9 -1.9 100 256 0.8 1.4 1004 0.0000 0.0000
10:27 -2 -2 100 227 0.8 1.4 1003.8 0.0000 0.0000
10:36 -1.9 -1.9 100 222 0.8 1.1 1003.7 0.0000 0.0000
10:46 -1.8 -1.8 100 230 0.8 1.1 1003.7 0.0000 0.0000
10:57 -1.9 -1.9 100 217 1.1 1.9 1003.7 0.0000 0.0000
11:07 -2.3 -2.3 100 221 0.8 1.9 1003.8 0.0000 0.0000
11:17 -2.6 -2.6 100 222 0.8 1.4 1003.7 0.0000 0.0000
11:27 -2.9 -2.9 100 225 1.1 1.9 1003.5 0.0000 0.0000
11:37 -3.1 -3.1 100 225 1.1 1.9 1003.4 0.0000 0.0000
11:47 -3.1 -3.1 100 217 0.8 1.4 1003.3 0.0000 0.0000
11:57 -3 -3 100 227 0.8 1.4 1003.1 0.0000 0.0000
12:08 -3 -3 100 220 0.8 1.4 1003 0.0000 0.0000
12:17 -3.1 -3.1 100 228 0.8 1.9 1002.9 0.0000 0.0000
12:27 -3.4 -3.4 100 223 1.1 1.9 1002.9 0.0000 0.0000
12:38 -3.4 -3.4 100 218 1.1 1.9 1002.8 0.0000 0.0000
12:48 -3.5 -3.5 100 219 1.1 1.9 1002.8 0.0000 0.0000
12:58 -3.6 -3.6 100 214 1.1 1.9 1002.8 0.0000 0.0000
13:08 -3.7 -3.7 100 230 1.1 1.9 1002.5 0.0000 0.0000
13:18 -3.8 -3.8 100 229 0.8 2.5 1002.4 0.0000 0.0000
13:28 -4 -4 100 232 0.8 1.1 1002.4 0.0000 0.0000
13:38 -4.1 -4.1 100 234 1.1 2.2 1002.3 0.0000 0.0000
13:48 -4.1 -4.1 100 233 0.8 1.1 1002.1 0.0000 0.0000
13:59 -4.1 -4.1 100 243 1.1 1.4 1001.7 0.0000 0.0000
14:08 -4.2 -4.2 100 225 0.8 1.9 1001.5 0.0000 0.0000
14:18 -4 -4 100 235 0.8 2.2 1001.4 0.0000 0.0000
14:29 -4.1 -4.1 100 233 0.8 1.4 1001.4 0.0000 0.0000
14:39 -4.2 -4.2 100 225 1.1 1.4 1001.4 0.0000 0.0000
14:49 -4.2 -4.2 100 225 1.1 1.9 1001.4 0.0000 0.0000
14:59 -4.4 -4.4 100 229 1.1 1.9 1001.4 0.0000 0.0000
15:09 -4.6 -4.6 100 231 1.4 2.2 1001.4 0.0000 0.0000
15:19 -4.6 -4.6 100 231 0.8 1.9 1001.3 0.0000 0.0000
15:29 -4.8 -4.8 100 232 1.1 1.9 1001.1 0.0000 0.0000
15:40 -4.8 -4.8 100 225 0.3 1.1 1001.1 0.0000 0.0000
15:50 -4.8 -4.8 100 238 0.8 1.4 1001.1 0.0000 0.0000
15:59 -4.6 -4.6 100 248 0.8 1.1 1001.3 0.0000 0.0000
16:09 -4.7 -4.7 100 228 1.1 1.9 1001.4 0.0000 0.0000
16:20 -4.8 -4.8 100 230 1.1 1.4 1001.6 0.0000 0.0000
16:30 -5 -5 100 234 1.1 1.4 1001.5 0.0000 0.0000
16:40 -5 -5 100 234 1.1 1.9 1001.5 0.0000 0.0000
16:50 -5.1 -5.1 100 234 1.4 1.9 1001.6 0.0000 0.0000
17:00 -5.2 -5.2 100 232 1.1 1.9 1001.6 0.0000 0.0000
17:10 -5.4 -5.4 100 233 1.4 2.2 1001.6 0.0000 0.0000
17:20 -5.5 -5.5 100 232 1.4 1.9 1001.6 0.0000 0.0000
17:31 -5.6 -5.6 100 234 1.4 1.9 1001.7 0.0000 0.0000
17:41 -5.9 -5.9 100 246 1.4 2.2 1001.7 0.0000 0.0000
17:50 -6.2 -6.2 100 243 1.4 2.2 1001.7 0.0000 0.0000
18:01 -6.5 -6.5 100 236 1.1 1.9 1001.8 0.0000 0.0000
18:11 -6.8 -6.8 100 237 1.1 1.9 1001.8 0.0000 0.0000
18:21 -7 -7 100 239 1.1 2.2 1002 0.0000 0.0000
18:31 -7.2 -7.2 100 248 1.9 3.3 1002.1 0.0000 0.0000
18:42 -7.5 -7.5 100 256 1.9 2.5 1002.2 0.0000 0.0000
18:51 -7.9 -7.9 100 259 1.1 2.2 1002.3 0.0000 0.0000
19:01 -8.2 -8.2 100 249 1.4 2.2 1002.3 0.0000 0.0000
19:11 -8.4 -8.4 100 249 1.9 3.1 1002.4 0.0000 0.0000
19:22 -8.5 -8.5 100 247 1.4 2.2 1002.4 0.0000 0.0000
19:32 -8.7 -8.7 100 253 1.4 3.3 1002.5 0.0000 0.0000
19:41 -8.8 -8.8 100 264 1.4 2.2 1002.5 0.0000 0.0000
19:52 -8.9 -8.9 100 257 1.4 1.9 1002.5 0.0000 0.0000
20:02 -9 -9 100 248 1.1 2.2 1002.8 0.0000 0.0000
20:12 -9.1 -9.1 100 259 1.1 1.9 1002.7 0.0000 0.0000
20:22 -9.1 -9.1 100 251 1.4 2.5 1002.7 0.0000 0.0000
20:32 -9 -9 100 236 0.8 1.4 1002.8 0.0000 0.0000
20:42 -8.9 -8.9 100 238 0.8 1.4 1002.5 0.0000 0.0000
20:52 -8.9 -8.9 100 242 1.1 2.2 1002.9 0.0000 0.0000
21:03 -9.1 -9.1 100 254 1.4 2.5 1003 0.0000 0.0000
21:13 -9.3 -9.3 100 253 1.4 2.2 1003 0.0000 0.0000
21:23 -9.5 -9.5 100 247 1.1 1.9 1003 0.0000 0.0000
21:32 -9.6 -9.6 100 247 1.1 1.9 1003 0.0000 0.0000
21:43 -9.7 -9.7 100 239 0.8 1.4 1003 0.0000 0.0000
21:53 -9.8 -9.8 100 241 0.8 1.4 1003 0.0000 0.0000
22:03 -9.9 -9.9 100 250 1.1 1.4 1003.1 0.0000 0.0000
22:13 -10 -10 100 261 1.1 1.9 1003.3 0.0000 0.0000
22:23 -10 -10 100 246 1.1 1.4 1003.3 0.0000 0.0000
22:33 -10 -10 100 255 1.1 1.4 1003.4 0.0000 0.0000
22:43 -10.1 -10.1 100 258 1.1 1.4 1003.4 0.0000 0.0000
22:54 -10.1 -10.1 100 241 0.8 1.4 1003.3 0.0000 0.0000
23:04 -10.2 -10.2 100 251 1.1 1.9 1003.4 0.0000 0.0000
23:13 -10.2 -10.2 100 248 1.1 1.9 1003.5 0.0000 0.0000
23:24 -10.3 -10.3 100 248 0.8 1.4 1003.6 0.0000 0.0000
23:34 -10.3 -10.3 100 241 0.8 1.4 1003.4 0.0000 0.0000
23:44 -10.5 -10.5 100 250 1.1 1.9 1003.5 0.0000 0.0000
23:54 -10.6 -10.6 100 240 0.8 1.4 1003.4 0.0000 0.0000

DAY STATISTICS

2018-02-24
TEMPERATURE
AVERAGE
-4.8
HIGH
-1.8
10:46
LOW
-10.6
23:54
PRESSURE
AVERAGE
1003.6
HIGH
1006.6
00:05
LOW
1001.1
15:29
DEWPOINT
AVERAGE
-4.8
HIGH
-1.8
10:46
LOW
-10.6
23:54
HUMIDITY
AVERAGE
100
HIGH
100
00:05
LOW
100
00:05
WIND SPEED
AVERAGE
1.1
HIGH
2.5
09:06
WIND GUST
AVERAGE
2.1
HIGH
5.6
08:25
WIND DIRECTION
PREVAILING
SW
67.6%
N
0.7
NE
0.0
E
0.0
SE
0.0
S
0.0
SW
67.6
W
31.0
NW
0.7
PRECIPITATION
RAIN HOUR
0.0
RAIN DAY
0.0
TEMPERATURE (°C)
LOW
-10.6
HIGH
-1.8
AVERAGE
-4.8
PRESSURE (hpa)
LOW
1001.1
HIGH
1006.6
AVERAGE
1003.6
DEVICE